Language: 


Des rapports , des résumés tant et plus, au choix de chacun....


Données Historiques de Météogheer
Journalier Rapport pour Février 4, 2017 Unitée:  Les deux    Impériale   Métrique
Suivant Jour »
Journalier Hebdomadaire Mensuel Annuel Sur mesure
  Max: Min: Moyenne:
Température: 44.8 °F /  7.1 °C 32 °F /  0.0 °C 41.9 °F /  5.5 °C
Point de rosée: 43.3 °F /  6.3 °C 37.9 °F /  3.3 °C 41 °F /  5 °C
Humidité: 98% 0% 96%
Vent: 11.4mph /  18.3km/h - 3.7mph /  6km/h
Rafales: 15.2mph /  24.5km/h - -
Vent- - South
Pression: 29.6 in /  1000.9 hPa 0 in /  0.0 hPa -
Pluie: 0.26 in /  6.6 mm    
Historical Graphs
 
 
Données tabulaires pour Février 4, 2017
Heure Température Point de rosée Pression Vent Vent Rafales Humidité Pluie Taux (Horaire) Conditions
00:01 44.8 °F /  7.1 °C 43.3 °F /  6.3 °C 29.4in /  996.8hPa WSW 7.4mph /  11.9km/h 11.2mph /  18.0km/h 95% 0in /  0.0mm
00:06 44.4 °F /  6.9 °C 43.2 °F /  6.2 °C 29.4in /  996.8hPa SW 9.6mph /  15.4km/h 11.2mph /  18.0km/h 95% 0in /  0.0mm
00:11 44.4 °F /  6.9 °C 43.2 °F /  6.2 °C 29.4in /  996.8hPa SW 7.6mph /  12.2km/h 10.7mph /  17.2km/h 95% 0in /  0.0mm
00:16 44.2 °F /  6.8 °C 43 °F /  6.1 °C 29.4in /  996.8hPa SW 10.7mph /  17.2km/h 12.3mph /  19.8km/h 95% 0in /  0.0mm
00:21 44.4 °F /  6.9 °C 43.2 °F /  6.2 °C 29.4in /  996.8hPa SW 7.4mph /  11.9km/h 13mph /  20.9km/h 95% 0in /  0.0mm
00:26 44.2 °F /  6.8 °C 42.6 °F /  5.9 °C 29.4in /  996.2hPa WSW 5.8mph /  9.3km/h 13mph /  20.9km/h 94% 0in /  0.0mm
00:31 44.2 °F /  6.8 °C 42.6 °F /  5.9 °C 29.4in /  996.2hPa WSW 7.2mph /  11.6km/h 11.4mph /  18.3km/h 94% 0in /  0.0mm
00:36 44.2 °F /  6.8 °C 42.6 °F /  5.9 °C 29.4in /  996.2hPa SW 8.9mph /  14.3km/h 10.1mph /  16.3km/h 94% 0in /  0.0mm
00:41 44.1 °F /  6.7 °C 42.4 °F /  5.8 °C 29.5in /  997.9hPa SW 7.6mph /  12.2km/h 12.1mph /  19.5km/h 94% 0in /  0.0mm
00:46 44.1 °F /  6.7 °C 42.1 °F /  5.6 °C 29.5in /  997.9hPa WSW 9.4mph /  15.1km/h 13mph /  20.9km/h 93% 0in /  0.0mm
00:51 44.1 °F /  6.7 °C 42.1 °F /  5.6 °C 29.5in /  997.9hPa SSW 10.1mph /  16.3km/h 13mph /  20.9km/h 93% 0in /  0.0mm
00:56 44.1 °F /  6.7 °C 42.1 °F /  5.6 °C 29.5in /  997.9hPa SSW 10.5mph /  16.9km/h 12.1mph /  19.5km/h 93% 0in /  0.0mm
01:01 44.1 °F /  6.7 °C 42.1 °F /  5.6 °C 29.5in /  997.9hPa SW 6.5mph /  10.5km/h 15.2mph /  24.5km/h 93% 0in /  0.0mm
01:06 44.1 °F /  6.7 °C 42.1 °F /  5.6 °C 29.5in /  997.9hPa West 5.8mph /  9.3km/h 15.2mph /  24.5km/h 93% 0in /  0.0mm
01:11 44.1 °F /  6.7 °C 42.1 °F /  5.6 °C 29.5in /  997.9hPa SSW 11.4mph /  18.3km/h 12.3mph /  19.8km/h 93% 0in /  0.0mm
01:16 44.1 °F /  6.7 °C 42.1 °F /  5.6 °C 29.5in /  997.9hPa SSW 6.5mph /  10.5km/h 12.8mph /  20.6km/h 93% 0in /  0.0mm
01:21 44.1 °F /  6.7 °C 42.1 °F /  5.6 °C 29.5in /  997.9hPa WSW 5.8mph /  9.3km/h 12.8mph /  20.6km/h 93% 0in /  0.0mm
01:26 44.1 °F /  6.7 °C 42.1 °F /  5.6 °C 29.5in /  997.9hPa South 6.5mph /  10.5km/h 10.5mph /  16.9km/h 93% 0in /  0.0mm
01:31 43.9 °F /  6.6 °C 41.5 °F /  5.3 °C 29.5in /  997.9hPa SSW 5.8mph /  9.3km/h 10.5mph /  16.9km/h 92% 0in /  0.0mm
01:36 43.9 °F /  6.6 °C 41.5 °F /  5.3 °C 29.5in /  997.9hPa SW 10.5mph /  16.9km/h 10.5mph /  16.9km/h 92% 0in /  0.0mm
01:41 43.5 °F /  6.4 °C 41.5 °F /  5.3 °C 29.5in /  997.9hPa SSW 8.1mph /  13.0km/h 11.2mph /  18.0km/h 92% 0in /  0.0mm
01:46 43.9 °F /  6.6 °C 41.9 °F /  5.5 °C 29.5in /  997.9hPa SSW 6.5mph /  10.5km/h 11.2mph /  18.0km/h 93% 0in /  0.0mm
01:51 43.5 °F /  6.4 °C 41.7 °F /  5.4 °C 29.5in /  997.9hPa SW 11mph /  17.7km/h 13mph /  20.9km/h 93% 0in /  0.0mm
01:56 43.5 °F /  6.4 °C 41.5 °F /  5.3 °C 29.5in /  997.9hPa SSW 10.7mph /  17.2km/h 13mph /  20.9km/h 92% 0in /  0.0mm
02:02 32 °F /  0.0 °C 41.4 °F /  5.2 °C 0in /  0.0hPa SSW 6mph /  9.7km/h 12.7mph /  20.4km/h 0% 0in /  0.0mm
02:07 43.3 °F /  6.3 °C 41.2 °F /  5.1 °C 29.5in /  997.9hPa SSW 9.4mph /  15.1km/h 12.1mph /  19.5km/h 92% 0in /  0.0mm
02:12 43.3 °F /  6.3 °C 41.2 °F /  5.1 °C 29.5in /  997.9hPa SSW 10.1mph /  16.3km/h 13.6mph /  21.9km/h 92% 0in /  0.0mm
02:17 43.2 °F /  6.2 °C 40.8 °F /  4.9 °C 29.5in /  997.9hPa SSW 5.6mph /  9.0km/h 13.6mph /  21.9km/h 92% 0in /  0.0mm
02:22 43.2 °F /  6.2 °C 40.8 °F /  4.9 °C 29.5in /  997.9hPa SSE 5.6mph /  9.0km/h 10.7mph /  17.2km/h 92% 0in /  0.0mm
02:27 42.8 °F /  6.0 °C 40.6 °F /  4.8 °C 29.5in /  997.9hPa SSW 3.4mph /  5.5km/h 8.5mph /  13.7km/h 92% 0in /  0.0mm
02:32 42.6 °F /  5.9 °C 40.5 °F /  4.7 °C 29.5in /  997.9hPa SSW 8.5mph /  13.7km/h 8.5mph /  13.7km/h 92% 0in /  0.0mm
02:37 42.4 °F /  5.8 °C 40.3 °F /  4.6 °C 29.5in /  997.9hPa SSW 5.8mph /  9.3km/h 9.2mph /  14.8km/h 92% 0in /  0.0mm
02:42 42.4 °F /  5.8 °C 40.5 °F /  4.7 °C 29.5in /  997.9hPa South 4.7mph /  7.6km/h 9.4mph /  15.1km/h 93% 0in /  0.0mm
02:47 42.3 °F /  5.7 °C 40.5 °F /  4.7 °C 29.5in /  997.9hPa SW 3.8mph /  6.1km/h 9.4mph /  15.1km/h 93% 0in /  0.0mm
02:52 42.1 °F /  5.6 °C 40.3 °F /  4.6 °C 29.4in /  996.8hPa SSW 6mph /  9.7km/h 8.1mph /  13.0km/h 93% 0in /  0.0mm
02:57 42.1 °F /  5.6 °C 40.3 °F /  4.6 °C 29.4in /  996.8hPa SSW 5.4mph /  8.7km/h 7.4mph /  11.9km/h 93% 0in /  0.0mm
03:02 41.9 °F /  5.5 °C 39.9 °F /  4.4 °C 29.4in /  996.8hPa WSW 4mph /  6.4km/h 7.4mph /  11.9km/h 93% 0in /  0.0mm
03:07 41.9 °F /  5.5 °C 40.3 °F /  4.6 °C 29.5in /  997.9hPa South 3.4mph /  5.5km/h 5.8mph /  9.3km/h 94% 0in /  0.0mm
03:12 41.9 °F /  5.5 °C 40.3 °F /  4.6 °C 29.5in /  997.9hPa SSW 5.8mph /  9.3km/h 8.7mph /  14.0km/h 94% 0in /  0.0mm
03:17 41.7 °F /  5.4 °C 40.1 °F /  4.5 °C 29.5in /  997.9hPa SSW 4.9mph /  7.9km/h 8.7mph /  14.0km/h 94% 0in /  0.0mm
03:22 41.7 °F /  5.4 °C 40.1 °F /  4.5 °C 29.5in /  997.9hPa SSW 5.6mph /  9.0km/h 7.4mph /  11.9km/h 94% 0in /  0.0mm
03:27 41.5 °F /  5.3 °C 39.9 °F /  4.4 °C 29.5in /  997.9hPa South 6.3mph /  10.1km/h 7.8mph /  12.6km/h 94% 0in /  0.0mm
03:32 41.4 °F /  5.2 °C 39.7 °F /  4.3 °C 29.5in /  997.9hPa SSW 6mph /  9.7km/h 7.8mph /  12.6km/h 94% 0in /  0.0mm
03:37 41.4 °F /  5.2 °C 39.7 °F /  4.3 °C 29.5in /  997.9hPa SSW 6mph /  9.7km/h 8.7mph /  14.0km/h 94% 0in /  0.0mm
03:42 41.4 °F /  5.2 °C 39.7 °F /  4.3 °C 29.5in /  997.9hPa SSW 3.4mph /  5.5km/h 8.7mph /  14.0km/h 94% 0in /  0.0mm
03:47 41.2 °F /  5.1 °C 39.6 °F /  4.2 °C 29.5in /  997.9hPa South 4mph /  6.4km/h 7.8mph /  12.6km/h 94% 0in /  0.0mm
03:52 41 °F /  5.0 °C 39.4 °F /  4.1 °C 29.5in /  997.9hPa SSW 4.7mph /  7.6km/h 7.8mph /  12.6km/h 94% 0in /  0.0mm
03:57 40.8 °F /  4.9 °C 39.2 °F /  4.0 °C 29.5in /  997.9hPa South 4.9mph /  7.9km/h 6.5mph /  10.5km/h 94% 0in /  0.0mm
04:02 40.6 °F /  4.8 °C 39.4 °F /  4.1 °C 29.5in /  997.9hPa South 5.4mph /  8.7km/h 7.2mph /  11.6km/h 95% 0in /  0.0mm
04:07 40.5 °F /  4.7 °C 39 °F /  3.9 °C 29.5in /  997.9hPa SSW 4.9mph /  7.9km/h 8.5mph /  13.7km/h 95% 0in /  0.0mm
04:12 40.5 °F /  4.7 °C 39 °F /  3.9 °C 29.5in /  997.9hPa South 3.1mph /  5.0km/h 8.5mph /  13.7km/h 95% 0in /  0.0mm
04:17 40.5 °F /  4.7 °C 39 °F /  3.9 °C 29.5in /  997.9hPa South 2.9mph /  4.7km/h 7.8mph /  12.6km/h 95% 0in /  0.0mm
04:22 40.1 °F /  4.5 °C 38.8 °F /  3.8 °C 29.5in /  997.9hPa SSW 3.8mph /  6.1km/h 6.3mph /  10.1km/h 95% 0in /  0.0mm
04:27 40.1 °F /  4.5 °C 38.8 °F /  3.8 °C 29.4in /  996.8hPa SSE 5.6mph /  9.0km/h 9.6mph /  15.4km/h 95% 0in /  0.0mm
04:32 40.1 °F /  4.5 °C 39 °F /  3.9 °C 29.4in /  996.8hPa South 7.4mph /  11.9km/h 9.6mph /  15.4km/h 96% 0in /  0.0mm
04:37 40.1 °F /  4.5 °C 39 °F /  3.9 °C 29.4in /  996.8hPa SSW 6mph /  9.7km/h 7.4mph /  11.9km/h 96% 0in /  0.0mm
04:42 40.1 °F /  4.5 °C 39 °F /  3.9 °C 29.4in /  996.8hPa South 7.8mph /  12.6km/h 8.5mph /  13.7km/h 96% 0in /  0.0mm
04:47 39.9 °F /  4.4 °C 38.8 °F /  3.8 °C 29.4in /  996.8hPa South 4.9mph /  7.9km/h 8.5mph /  13.7km/h 96% 0in /  0.0mm
04:52 39.9 °F /  4.4 °C 38.8 °F /  3.8 °C 29.4in /  996.8hPa South 5.6mph /  9.0km/h 7.2mph /  11.6km/h 96% 0in /  0.0mm
04:57 39.9 °F /  4.4 °C 38.8 °F /  3.8 °C 29.4in /  996.8hPa SSW 4.9mph /  7.9km/h 8.7mph /  14.0km/h 96% 0in /  0.0mm
05:02 39.9 °F /  4.4 °C 39.2 °F /  4.0 °C 29.4in /  996.8hPa South 3.8mph /  6.1km/h 8.7mph /  14.0km/h 97% 0in /  0.0mm
05:07 39.9 °F /  4.4 °C 39.2 °F /  4.0 °C 29.4in /  996.8hPa South 3.4mph /  5.5km/h 7.2mph /  11.6km/h 97% 0in /  0.0mm
05:12 39.7 °F /  4.3 °C 39 °F /  3.9 °C 29.4in /  996.8hPa South 3.8mph /  6.1km/h 7.2mph /  11.6km/h 97% 0in /  0.0mm
05:17 39.7 °F /  4.3 °C 39 °F /  3.9 °C 29.4in /  996.8hPa SSW 3.6mph /  5.8km/h 7.2mph /  11.6km/h 97% 0in /  0.0mm
05:22 39.7 °F /  4.3 °C 39 °F /  3.9 °C 29.4in /  996.8hPa SSE 4mph /  6.4km/h 8.5mph /  13.7km/h 97% 0in /  0.0mm
05:27 39.7 °F /  4.3 °C 39 °F /  3.9 °C 29.4in /  996.8hPa South 2.9mph /  4.7km/h 8.5mph /  13.7km/h 97% 0in /  0.0mm
05:32 39.7 °F /  4.3 °C 39 °F /  3.9 °C 29.4in /  996.8hPa SSE 3.4mph /  5.5km/h 5.8mph /  9.3km/h 97% 0in /  0.0mm
05:37 39.7 °F /  4.3 °C 39 °F /  3.9 °C 29.4in /  996.2hPa SSE 3.1mph /  5.0km/h 6mph /  9.7km/h 97% 0in /  0.0mm
05:42 39.6 °F /  4.2 °C 38.8 °F /  3.8 °C 29.4in /  996.2hPa South 2.5mph /  4.0km/h 7.2mph /  11.6km/h 97% 0in /  0.0mm
05:47 39.6 °F /  4.2 °C 38.8 °F /  3.8 °C 29.4in /  996.2hPa South 0.9mph /  1.4km/h 7.2mph /  11.6km/h 97% 0in /  0.0mm
05:52 39.6 °F /  4.2 °C 38.8 °F /  3.8 °C 29.4in /  996.8hPa SE 0.9mph /  1.4km/h 6.5mph /  10.5km/h 97% 0in /  0.0mm
05:57 39.6 °F /  4.2 °C 38.8 °F /  3.8 °C 29.4in /  996.8hPa SSE 0.9mph /  1.4km/h 6mph /  9.7km/h 97% 0in /  0.0mm
06:02 39.6 °F /  4.2 °C 38.8 °F /  3.8 °C 29.4in /  996.8hPa SSE 2.7mph /  4.3km/h 6.3mph /  10.1km/h 97% 0in /  0.0mm
06:07 39.6 °F /  4.2 °C 38.8 °F /  3.8 °C 29.5in /  997.9hPa SE 3.6mph /  5.8km/h 6.5mph /  10.5km/h 97% 0in /  0.0mm
06:12 39.6 °F /  4.2 °C 39 °F /  3.9 °C 29.5in /  997.9hPa ESE 4.9mph /  7.9km/h 8.5mph /  13.7km/h 98% 0in /  0.0mm
06:17 39.7 °F /  4.3 °C 39.2 °F /  4.0 °C 29.5in /  997.9hPa SE 4.7mph /  7.6km/h 8.5mph /  13.7km/h 98% 0in /  0.0mm
06:22 39.7 °F /  4.3 °C 39.2 °F /  4.0 °C 29.4in /  996.8hPa SSE 4.3mph /  6.9km/h 6.5mph /  10.5km/h 98% 0in /  0.0mm
06:27 39.9 °F /  4.4 °C 39.4 °F /  4.1 °C 29.4in /  996.8hPa SE 6.3mph /  10.1km/h 10.1mph /  16.3km/h 98% 0in /  0.0mm
06:32 40.1 °F /  4.5 °C 39.6 °F /  4.2 °C 29.4in /  996.8hPa SSE 5.6mph /  9.0km/h 10.1mph /  16.3km/h 98% 0in /  0.0mm
06:37 40.3 °F /  4.6 °C 39.7 °F /  4.3 °C 29.4in /  996.2hPa SE 5.4mph /  8.7km/h 7.4mph /  11.9km/h 98% 0in /  0.0mm
06:42 40.3 °F /  4.6 °C 39.7 °F /  4.3 °C 29.4in /  996.2hPa SE 7.8mph /  12.6km/h 7.8mph /  12.6km/h 98% 0in /  0.0mm
06:47 40.5 °F /  4.7 °C 39.9 °F /  4.4 °C 29.4in /  996.2hPa ESE 4mph /  6.4km/h 8.1mph /  13.0km/h 98% 0in /  0.0mm
06:52 40.5 °F /  4.7 °C 39.9 °F /  4.4 °C 29.4in /  996.8hPa South 3.1mph /  5.0km/h 8.1mph /  13.0km/h 98% 0in /  0.0mm
06:57 40.6 °F /  4.8 °C 40.1 °F /  4.5 °C 29.4in /  996.8hPa ESE 3.8mph /  6.1km/h 7.4mph /  11.9km/h 98% 0in /  0.0mm
07:02 40.6 °F /  4.8 °C 40.1 °F /  4.5 °C 29.4in /  996.8hPa ESE 6.9mph /  11.1km/h 6.9mph /  11.1km/h 98% 0in /  0.0mm
07:07 40.8 °F /  4.9 °C 40.3 °F /  4.6 °C 29.4in /  996.8hPa SSE 6.3mph /  10.1km/h 10.7mph /  17.2km/h 98% 0in /  0.0mm
07:12 40.8 °F /  4.9 °C 40.3 °F /  4.6 °C 29.4in /  996.8hPa SE 4.9mph /  7.9km/h 10.7mph /  17.2km/h 98% 0in /  0.0mm
07:17 41 °F /  5.0 °C 40.5 °F /  4.7 °C 29.4in /  996.8hPa SE 6.5mph /  10.5km/h 8.7mph /  14.0km/h 98% 0in /  0.0mm
07:22 41 °F /  5.0 °C 40.5 °F /  4.7 °C 29.4in /  996.2hPa SE 6.3mph /  10.1km/h 8.7mph /  14.0km/h 98% 0in /  0.0mm
07:27 41.2 °F /  5.1 °C 40.6 °F /  4.8 °C 29.4in /  996.2hPa South 7.8mph /  12.6km/h 7.8mph /  12.6km/h 98% 0in /  0.0mm
07:32 41.4 °F /  5.2 °C 40.8 °F /  4.9 °C 29.4in /  996.2hPa SE 5.6mph /  9.0km/h 8.5mph /  13.7km/h 98% 0in /  0.0mm
07:37 41.5 °F /  5.3 °C 41 °F /  5.0 °C 29.4in /  996.2hPa SE 6.3mph /  10.1km/h 8.5mph /  13.7km/h 98% 0in /  0.0mm
07:42 41.5 °F /  5.3 °C 41 °F /  5.0 °C 29.4in /  996.2hPa ENE 4.9mph /  7.9km/h 8.5mph /  13.7km/h 98% 0in /  0.0mm
07:47 41.5 °F /  5.3 °C 41 °F /  5.0 °C 29.4in /  996.2hPa East 3.8mph /  6.1km/h 8.5mph /  13.7km/h 98% 0in /  0.0mm
07:52 41.5 °F /  5.3 °C 41 °F /  5.0 °C 29.4in /  996.2hPa SE 3.1mph /  5.0km/h 8.1mph /  13.0km/h 98% 0in /  0.0mm
07:57 41.4 °F /  5.2 °C 40.6 °F /  4.8 °C 29.4in /  996.2hPa ESE 3.6mph /  5.8km/h 7.4mph /  11.9km/h 97% 0in /  0.0mm
08:02 41.4 °F /  5.2 °C 40.6 °F /  4.8 °C 29.4in /  996.2hPa ESE 5.4mph /  8.7km/h 7.4mph /  11.9km/h 97% 0in /  0.0mm
08:07 41.2 °F /  5.1 °C 40.5 °F /  4.7 °C 29.4in /  996.2hPa ENE 5.6mph /  9.0km/h 7.2mph /  11.6km/h 97% 0in /  0.0mm
08:12 41.2 °F /  5.1 °C 40.5 °F /  4.7 °C 29.4in /  996.2hPa ESE 5.8mph /  9.3km/h 7.2mph /  11.6km/h 97% 0in /  0.0mm
08:17 41 °F /  5.0 °C 40.3 °F /  4.6 °C 29.4in /  996.2hPa ESE 5.6mph /  9.0km/h 7.2mph /  11.6km/h 97% 0in /  0.0mm
08:22 41 °F /  5.0 °C 40.3 °F /  4.6 °C 29.4in /  996.2hPa East 5.8mph /  9.3km/h 6.5mph /  10.5km/h 97% 0in /  0.0mm
08:27 41 °F /  5.0 °C 40.3 °F /  4.6 °C 29.4in /  996.2hPa East 4.5mph /  7.2km/h 6.9mph /  11.1km/h 97% 0in /  0.0mm
08:32 41.2 °F /  5.1 °C 40.6 °F /  4.8 °C 29.4in /  996.2hPa ESE 5.8mph /  9.3km/h 6.9mph /  11.1km/h 98% 0in /  0.0mm
08:37 41.2 °F /  5.1 °C 40.6 °F /  4.8 °C 29.4in /  995.1hPa ESE 4mph /  6.4km/h 6.7mph /  10.8km/h 98% 0in /  0.0mm
08:42 41.4 °F /  5.2 °C 40.8 °F /  4.9 °C 29.4in /  995.1hPa East 1.1mph /  1.8km/h 7.6mph /  12.2km/h 98% 0in /  0.0mm
08:47 41.4 °F /  5.2 °C 40.8 °F /  4.9 °C 29.4in /  995.1hPa East 5.6mph /  9.0km/h 7.6mph /  12.2km/h 98% 0in /  0.0mm
08:52 41.5 °F /  5.3 °C 41 °F /  5.0 °C 29.4in /  995.1hPa ENE 2.7mph /  4.3km/h 6.5mph /  10.5km/h 98% 0in /  0.0mm
08:57 41.5 °F /  5.3 °C 41 °F /  5.0 °C 29.4in /  995.1hPa East 3.6mph /  5.8km/h 5.8mph /  9.3km/h 98% 0in /  0.0mm
09:02 41.7 °F /  5.4 °C 41.2 °F /  5.1 °C 29.4in /  995.1hPa East 4.9mph /  7.9km/h 7.8mph /  12.6km/h 98% 0in /  0.0mm
09:07 41.7 °F /  5.4 °C 41.2 °F /  5.1 °C 29.4in /  994.1hPa ENE 4mph /  6.4km/h 7.8mph /  12.6km/h 98% 0in /  0.0mm
09:12 41.9 °F /  5.5 °C 41.4 °F /  5.2 °C 29.4in /  994.1hPa ESE 4.3mph /  6.9km/h 7.4mph /  11.9km/h 98% 0in /  0.0mm
09:17 41.9 °F /  5.5 °C 41.4 °F /  5.2 °C 29.4in /  994.1hPa East 2.9mph /  4.7km/h 6.5mph /  10.5km/h 98% 0in /  0.0mm
09:22 41.9 °F /  5.5 °C 41.4 °F /  5.2 °C 29.4in /  995.1hPa East 4.7mph /  7.6km/h 6.3mph /  10.1km/h 98% 0in /  0.0mm
09:27 42.1 °F /  5.6 °C 41.5 °F /  5.3 °C 29.4in /  995.1hPa East 2.7mph /  4.3km/h 5.8mph /  9.3km/h 98% 0in /  0.0mm
09:32 42.1 °F /  5.6 °C 41.4 °F /  5.2 °C 29.4in /  995.1hPa Calm   4.7mph /  7.6km/h 97% 0in /  0.0mm
09:37 42.1 °F /  5.6 °C 41.4 °F /  5.2 °C 29.4in /  995.1hPa East 2.7mph /  4.3km/h 4.3mph /  6.9km/h 97% 0in /  0.0mm
09:42 42.3 °F /  5.7 °C 41.4 °F /  5.2 °C 29.4in /  995.1hPa ENE 2.5mph /  4.0km/h 4.9mph /  7.9km/h 97% 0in /  0.0mm
09:47 42.3 °F /  5.7 °C 41.4 °F /  5.2 °C 29.4in /  995.1hPa Calm   4.9mph /  7.9km/h 97% 0in /  0.0mm
09:52 42.3 °F /  5.7 °C 41.4 °F /  5.2 °C 29.4in /  995.1hPa Calm   4.3mph /  6.9km/h 97% 0in /  0.0mm
09:57 42.3 °F /  5.7 °C 41.4 °F /  5.2 °C 29.4in /  995.1hPa ENE 2.2mph /  3.5km/h 4.9mph /  7.9km/h 97% 0in /  0.0mm
09:58 42.3 °F /  5.7 °C 41.4 °F /  5.2 °C 29.4in /  995.1hPa Calm   4.9mph /  7.9km/h 97% 0in /  0.0mm
10:03 42.4 °F /  5.8 °C 41.5 °F /  5.3 °C 29.4in /  995.1hPa Calm   4.9mph /  7.9km/h 97% 0in /  0.0mm
10:08 42.4 °F /  5.8 °C 41.5 °F /  5.3 °C 29.4in /  994.1hPa NE 2.5mph /  4.0km/h 3.4mph /  5.5km/h 97% 0in /  0.0mm
10:13 42.4 °F /  5.8 °C 41.5 °F /  5.3 °C 29.4in /  994.1hPa East 3.1mph /  5.0km/h 3.6mph /  5.8km/h 97% 0in /  0.0mm
10:18 42.4 °F /  5.8 °C 41.5 °F /  5.3 °C 29.4in /  994.1hPa Calm   3.6mph /  5.8km/h 97% 0in /  0.0mm
10:23 42.6 °F /  5.9 °C 41.7 °F /  5.4 °C 29.4in /  994.1hPa NE 3.1mph /  5.0km/h 3.6mph /  5.8km/h 97% 0in /  0.0mm
10:28 42.6 °F /  5.9 °C 41.7 °F /  5.4 °C 29.4in /  994.1hPa ENE 1.1mph /  1.8km/h 4mph /  6.4km/h 97% 0in /  0.0mm
10:33 42.6 °F /  5.9 °C 41.7 °F /  5.4 °C 29.4in /  994.1hPa NE 3.1mph /  5.0km/h 4.7mph /  7.6km/h 97% 0in /  0.0mm
10:38 42.6 °F /  5.9 °C 41.7 °F /  5.4 °C 29.4in /  995.1hPa NE 3.8mph /  6.1km/h 4.7mph /  7.6km/h 97% 0in /  0.0mm
10:43 42.6 °F /  5.9 °C 41.7 °F /  5.4 °C 29.4in /  995.1hPa NE 4.3mph /  6.9km/h 6mph /  9.7km/h 97% 0in /  0.0mm
10:48 42.6 °F /  5.9 °C 41.7 °F /  5.4 °C 29.4in /  995.1hPa NE 4mph /  6.4km/h 6mph /  9.7km/h 97% 0in /  0.0mm
10:53 42.6 °F /  5.9 °C 41.7 °F /  5.4 °C 29.4in /  995.1hPa NNE 5.4mph /  8.7km/h 5.6mph /  9.0km/h 97% 0in /  0.0mm
10:58 42.8 °F /  6.0 °C 42.1 °F /  5.6 °C 29.4in /  995.1hPa NE 3.4mph /  5.5km/h 5.6mph /  9.0km/h 97% 0in /  0.0mm
11:03 42.8 °F /  6.0 °C 42.1 °F /  5.6 °C 29.4in /  995.1hPa East 4.3mph /  6.9km/h 6.5mph /  10.5km/h 97% 0in /  0.0mm
11:08 42.8 °F /  6.0 °C 42.1 °F /  5.6 °C 29.4in /  994.1hPa NE 4.3mph /  6.9km/h 6.5mph /  10.5km/h 97% 0in /  0.0mm
11:13 43 °F /  6.1 °C 42.1 °F /  5.6 °C 29.4in /  994.1hPa ENE 4.7mph /  7.6km/h 5.8mph /  9.3km/h 97% 0in /  0.0mm
11:18 43 °F /  6.1 °C 42.1 °F /  5.6 °C 29.4in /  994.1hPa ENE 2.5mph /  4.0km/h 6.3mph /  10.1km/h 97% 0in /  0.0mm
11:23 43.2 °F /  6.2 °C 42.3 °F /  5.7 °C 29.4in /  995.1hPa NE 5.6mph /  9.0km/h 6.3mph /  10.1km/h 97% 0in /  0.0mm
11:28 43.3 °F /  6.3 °C 42.4 °F /  5.8 °C 29.4in /  995.1hPa NE 6.3mph /  10.1km/h 6.3mph /  10.1km/h 97% 0in /  0.0mm
11:33 43.5 °F /  6.4 °C 42.6 °F /  5.9 °C 29.4in /  995.1hPa NE 5.8mph /  9.3km/h 7.4mph /  11.9km/h 97% 0in /  0.0mm
11:38 43.5 °F /  6.4 °C 42.6 °F /  5.9 °C 29.4in /  995.1hPa East 5.4mph /  8.7km/h 7.4mph /  11.9km/h 97% 0in /  0.0mm
11:43 43.9 °F /  6.6 °C 43 °F /  6.1 °C 29.4in /  995.1hPa ENE 3.6mph /  5.8km/h 6.5mph /  10.5km/h 97% 0in /  0.0mm
11:48 43.9 °F /  6.6 °C 43 °F /  6.1 °C 29.4in /  995.1hPa NE 4.7mph /  7.6km/h 6.5mph /  10.5km/h 97% 0in /  0.0mm
11:53 44.1 °F /  6.7 °C 43.2 °F /  6.2 °C 29.4in /  994.1hPa ENE 6.3mph /  10.1km/h 6.9mph /  11.1km/h 97% 0in /  0.0mm
11:58 44.1 °F /  6.7 °C 43 °F /  6.1 °C 29.4in /  994.1hPa ENE 6.3mph /  10.1km/h 6.9mph /  11.1km/h 96% 0in /  0.0mm
12:03 44.1 °F /  6.7 °C 43 °F /  6.1 °C 29.4in /  994.1hPa NE 1.1mph /  1.8km/h 6.9mph /  11.1km/h 96% 0in /  0.0mm
12:08 44.2 °F /  6.8 °C 43.2 °F /  6.2 °C 29.4in /  995.1hPa ENE 3.8mph /  6.1km/h 6mph /  9.7km/h 96% 0in /  0.0mm
12:13 44.2 °F /  6.8 °C 43.2 °F /  6.2 °C 29.4in /  995.1hPa ENE 4mph /  6.4km/h 6mph /  9.7km/h 96% 0in /  0.0mm
12:18 44.2 °F /  6.8 °C 43.3 °F /  6.3 °C 29.4in /  995.1hPa East 1.3mph /  2.1km/h 6mph /  9.7km/h 96% 0in /  0.0mm
12:23 44.2 °F /  6.8 °C 43.3 °F /  6.3 °C 29.4in /  994.1hPa ESE 2.9mph /  4.7km/h 4mph /  6.4km/h 96% 0in /  0.0mm
12:28 44.2 °F /  6.8 °C 43 °F /  6.1 °C 29.4in /  994.1hPa ESE 3.8mph /  6.1km/h 4mph /  6.4km/h 95% 0in /  0.0mm
12:33 44.2 °F /  6.8 °C 43.2 °F /  6.2 °C 29.4in /  994.1hPa East 3.8mph /  6.1km/h 5.4mph /  8.7km/h 96% 0in /  0.0mm
12:38 44.2 °F /  6.8 °C 43.2 °F /  6.2 °C 29.4in /  994.1hPa ESE 3.6mph /  5.8km/h 5.4mph /  8.7km/h 96% 0in /  0.0mm
12:43 44.1 °F /  6.7 °C 43 °F /  6.1 °C 29.4in /  994.1hPa Calm   4mph /  6.4km/h 96% 0.01in /  0.3mm
12:45 44.1 °F /  6.7 °C 43 °F /  6.1 °C 29.4in /  994.1hPa East 2.2mph /  3.5km/h 3.6mph /  5.8km/h 96% 0.01in /  0.3mm
12:50 44.1 °F /  6.7 °C 43 °F /  6.1 °C 29.4in /  994.1hPa Calm   2.9mph /  4.7km/h 96% 0.01in /  0.3mm
12:55 44.1 °F /  6.7 °C 43 °F /  6.1 °C 29.4in /  995.1hPa Calm   3.6mph /  5.8km/h 96% 0.02in /  0.5mm
13:00 44.1 °F /  6.7 °C 43 °F /  6.1 °C 29.4in /  995.1hPa ESE 3.6mph /  5.8km/h 3.6mph /  5.8km/h 96% 0.02in /  0.5mm
13:05 43.9 °F /  6.6 °C 42.8 °F /  6.0 °C 29.4in /  995.1hPa SE 3.6mph /  5.8km/h 4.3mph /  6.9km/h 96% 0.04in /  1.0mm
13:10 43.5 °F /  6.4 °C 42.6 °F /  5.9 °C 29.4in /  994.1hPa ESE 5.6mph /  9.0km/h 6.3mph /  10.1km/h 96% 0.04in /  1.0mm
13:15 43.3 °F /  6.3 °C 42.1 °F /  5.6 °C 29.4in /  994.1hPa SE 3.8mph /  6.1km/h 6.5mph /  10.5km/h 95% 0.05in /  1.3mm
13:20 43.3 °F /  6.3 °C 42.1 °F /  5.6 °C 29.4in /  994.1hPa East 3.8mph /  6.1km/h 6.5mph /  10.5km/h 95% 0.06in /  1.5mm
13:25 43.2 °F /  6.2 °C 41.7 °F /  5.4 °C 29.4in /  995.1hPa Calm   5.6mph /  9.0km/h 95% 0.06in /  1.5mm
13:30 43 °F /  6.1 °C 41.5 °F /  5.3 °C 29.4in /  995.1hPa East 0.9mph /  1.4km/h 3.8mph /  6.1km/h 95% 0.07in /  1.8mm
13:35 42.8 °F /  6.0 °C 41.4 °F /  5.2 °C 29.4in /  995.1hPa East 2mph /  3.2km/h 3.1mph /  5.0km/h 95% 0.08in /  2.0mm
13:40 42.8 °F /  6.0 °C 41.4 °F /  5.2 °C 29.4in /  995.1hPa Calm   2.9mph /  4.7km/h 95% 0.09in /  2.3mm
13:45 42.8 °F /  6.0 °C 41.7 °F /  5.4 °C 29.4in /  995.1hPa NE 2.2mph /  3.5km/h 2.5mph /  4.0km/h 96% 0.08in /  2.0mm
13:50 42.6 °F /  5.9 °C 41.5 °F /  5.3 °C 29.4in /  995.1hPa NE 0.9mph /  1.4km/h 2.5mph /  4.0km/h 96% 0.09in /  2.3mm
13:55 42.6 °F /  5.9 °C 41.5 °F /  5.3 °C 29.4in /  995.1hPa NE 2.5mph /  4.0km/h 4mph /  6.4km/h 96% 0.09in /  2.3mm
14:00 42.6 °F /  5.9 °C 41.5 °F /  5.3 °C 29.4in /  995.1hPa NE 4mph /  6.4km/h 4.3mph /  6.9km/h 96% 0.11in /  2.8mm
14:05 42.4 °F /  5.8 °C 41.4 °F /  5.2 °C 29.4in /  995.1hPa NE 4mph /  6.4km/h 7.4mph /  11.9km/h 96% 0.09in /  2.3mm
14:10 42.3 °F /  5.7 °C 41.2 °F /  5.1 °C 29.4in /  996.2hPa Calm   7.4mph /  11.9km/h 96% 0.1in /  2.5mm
14:15 42.3 °F /  5.7 °C 41.2 °F /  5.1 °C 29.4in /  996.2hPa NNE 3.1mph /  5.0km/h 6mph /  9.7km/h 96% 0.09in /  2.3mm
14:20 42.3 °F /  5.7 °C 41.2 °F /  5.1 °C 29.4in /  996.2hPa Calm   6mph /  9.7km/h 96% 0.09in /  2.3mm
14:25 42.3 °F /  5.7 °C 41.4 °F /  5.2 °C 29.4in /  996.2hPa North 2.9mph /  4.7km/h 4.9mph /  7.9km/h 97% 0.08in /  2.0mm
14:30 42.4 °F /  5.8 °C 41.5 °F /  5.3 °C 29.4in /  996.2hPa Calm   4.3mph /  6.9km/h 97% 0.09in /  2.3mm
14:35 42.4 °F /  5.8 °C 41.5 °F /  5.3 °C 29.4in /  996.2hPa North 2.5mph /  4.0km/h 4.3mph /  6.9km/h 97% 0.09in /  2.3mm
14:40 42.4 °F /  5.8 °C 41.5 °F /  5.3 °C 29.4in /  996.2hPa North 2.5mph /  4.0km/h 4mph /  6.4km/h 97% 0.08in /  2.0mm
14:45 42.3 °F /  5.7 °C 41.4 °F /  5.2 °C 29.4in /  996.2hPa NE 1.3mph /  2.1km/h 4.3mph /  6.9km/h 97% 0.08in /  2.0mm
14:50 42.3 °F /  5.7 °C 41.4 °F /  5.2 °C 29.4in /  996.2hPa Calm   4.3mph /  6.9km/h 97% 0.07in /  1.8mm
14:55 42.3 °F /  5.7 °C 41.4 °F /  5.2 °C 29.4in /  996.2hPa Calm   4.3mph /  6.9km/h 97% 0.06in /  1.5mm
15:00 42.1 °F /  5.6 °C 41.4 °F /  5.2 °C 29.4in /  996.2hPa Calm   3.4mph /  5.5km/h 97% 0.04in /  1.0mm
15:05 42.1 °F /  5.6 °C 41.4 °F /  5.2 °C 29.4in /  996.2hPa NW 2.2mph /  3.5km/h 4.7mph /  7.6km/h 97% 0.06in /  1.5mm
15:10 42.1 °F /  5.6 °C 41.4 °F /  5.2 °C 29.4in /  996.8hPa WNW 1.6mph /  2.6km/h 4.7mph /  7.6km/h 97% 0.05in /  1.3mm
15:15 42.1 °F /  5.6 °C 41.4 °F /  5.2 °C 29.4in /  996.8hPa NNW 3.1mph /  5.0km/h 4mph /  6.4km/h 97% 0.06in /  1.5mm
15:20 41.9 °F /  5.5 °C 41.2 °F /  5.1 °C 29.4in /  996.8hPa NNE 1.1mph /  1.8km/h 4.3mph /  6.9km/h 97% 0.04in /  1.0mm
15:25 41.9 °F /  5.5 °C 41.2 °F /  5.1 °C 29.4in /  996.8hPa NNW 4mph /  6.4km/h 5.4mph /  8.7km/h 97% 0.06in /  1.5mm
15:30 41.9 °F /  5.5 °C 41.2 °F /  5.1 °C 29.4in /  996.8hPa Calm   5.4mph /  8.7km/h 97% 0.06in /  1.5mm
15:35 41.9 °F /  5.5 °C 41.2 °F /  5.1 °C 29.4in /  996.8hPa NW 1.3mph /  2.1km/h 3.8mph /  6.1km/h 97% 0.05in /  1.3mm
15:40 41.9 °F /  5.5 °C 41.2 °F /  5.1 °C 29.4in /  996.8hPa West 0.9mph /  1.4km/h 3.4mph /  5.5km/h 97% 0.05in /  1.3mm
15:45 41.9 °F /  5.5 °C 41.2 °F /  5.1 °C 29.4in /  996.8hPa Calm   2.7mph /  4.3km/h 97% 0.06in /  1.5mm
15:50 41.9 °F /  5.5 °C 41.2 °F /  5.1 °C 29.4in /  996.8hPa WNW 2.9mph /  4.7km/h 2.9mph /  4.7km/h 97% 0.06in /  1.5mm
15:55 41.9 °F /  5.5 °C 41.2 °F /  5.1 °C 29.4in /  996.8hPa Calm   2.9mph /  4.7km/h 97% 0.07in /  1.8mm
16:00 41.9 °F /  5.5 °C 41.2 °F /  5.1 °C 29.4in /  996.8hPa NW 2.5mph /  4.0km/h 3.1mph /  5.0km/h 97% 0.07in /  1.8mm
16:05 41.9 °F /  5.5 °C 41.2 °F /  5.1 °C 29.4in /  996.8hPa North 2.5mph /  4.0km/h 3.4mph /  5.5km/h 97% 0.06in /  1.5mm
16:10 41.9 °F /  5.5 °C 41.2 °F /  5.1 °C 29.4in /  996.8hPa Calm   3.4mph /  5.5km/h 97% 0.06in /  1.5mm
16:15 41.9 °F /  5.5 °C 41.2 °F /  5.1 °C 29.4in /  996.8hPa Calm   2.7mph /  4.3km/h 97% 0.05in /  1.3mm
16:20 42.1 °F /  5.6 °C 41.4 °F /  5.2 °C 29.4in /  996.8hPa Calm   3.1mph /  5.0km/h 97% 0.06in /  1.5mm
16:25 42.1 °F /  5.6 °C 41.4 °F /  5.2 °C 29.4in /  996.8hPa Calm   3.1mph /  5.0km/h 97% 0.04in /  1.0mm
16:30 42.1 °F /  5.6 °C 41.4 °F /  5.2 °C 29.4in /  996.8hPa WNW 2.2mph /  3.5km/h 3.6mph /  5.8km/h 97% 0.03in /  0.8mm
16:35 42.1 °F /  5.6 °C 41.4 °F /  5.2 °C 29.4in /  996.8hPa Calm   3.6mph /  5.8km/h 97% 0.03in /  0.8mm
16:40 42.1 °F /  5.6 °C 41.4 °F /  5.2 °C 29.4in /  996.8hPa Calm   3.6mph /  5.8km/h 97% 0.03in /  0.8mm
16:45 42.1 °F /  5.6 °C 41.4 °F /  5.2 °C 29.4in /  996.8hPa Calm   2.9mph /  4.7km/h 97% 0.02in /  0.5mm
16:50 42.1 °F /  5.6 °C 41.4 °F /  5.2 °C 29.4in /  996.8hPa Calm   1.6mph /  2.6km/h 97% 0.02in /  0.5mm
16:55 42.1 °F /  5.6 °C 41.4 °F /  5.2 °C 29.5in /  997.9hPa WNW 1.6mph /  2.6km/h 2.7mph /  4.3km/h 97% 0.01in /  0.3mm
17:00 41.9 °F /  5.5 °C 41.2 °F /  5.1 °C 29.5in /  997.9hPa West 2.2mph /  3.5km/h 3.6mph /  5.8km/h 97% 0.01in /  0.3mm
17:05 41.9 °F /  5.5 °C 41.2 °F /  5.1 °C 29.5in /  997.9hPa West 3.4mph /  5.5km/h 4mph /  6.4km/h 97% 0.01in /  0.3mm
17:10 41.9 °F /  5.5 °C 41.2 °F /  5.1 °C 29.5in /  997.9hPa WNW 3.4mph /  5.5km/h 4.3mph /  6.9km/h 97% 0.01in /  0.3mm
17:15 41.9 °F /  5.5 °C 41.2 °F /  5.1 °C 29.5in /  997.9hPa North 2mph /  3.2km/h 4.3mph /  6.9km/h 97% 0.01in /  0.3mm
17:20 41.9 °F /  5.5 °C 41.2 °F /  5.1 °C 29.5in /  997.9hPa West 2.7mph /  4.3km/h 4.7mph /  7.6km/h 97% 0in /  0.0mm
17:25 41.9 °F /  5.5 °C 41.2 °F /  5.1 °C 29.5in /  997.9hPa WNW 3.6mph /  5.8km/h 4.7mph /  7.6km/h 97% 0in /  0.0mm
17:30 41.9 °F /  5.5 °C 41.2 °F /  5.1 °C 29.5in /  997.9hPa Calm   3.6mph /  5.8km/h 97% 0in /  0.0mm
17:35 41.9 °F /  5.5 °C 41.4 °F /  5.2 °C 29.5in /  997.9hPa North 1.1mph /  1.8km/h 3.6mph /  5.8km/h 98% 0in /  0.0mm
17:40 41.9 °F /  5.5 °C 41.4 °F /  5.2 °C 29.5in /  997.9hPa Calm   4mph /  6.4km/h 98% 0in /  0.0mm
17:45 41.9 °F /  5.5 °C 41.4 °F /  5.2 °C 29.5in /  997.9hPa NNW 1.1mph /  1.8km/h 4mph /  6.4km/h 98% 0in /  0.0mm
17:50 41.9 °F /  5.5 °C 41.4 °F /  5.2 °C 29.5in /  997.9hPa Calm   2.9mph /  4.7km/h 98% 0in /  0.0mm
17:55 41.9 °F /  5.5 °C 41.4 °F /  5.2 °C 29.5in /  997.9hPa West 2.7mph /  4.3km/h 2.9mph /  4.7km/h 98% 0in /  0.0mm
18:00 41.9 °F /  5.5 °C 41.4 °F /  5.2 °C 29.5in /  997.9hPa WNW 1.6mph /  2.6km/h 4.5mph /  7.2km/h 98% 0in /  0.0mm
18:05 41.7 °F /  5.4 °C 41.2 °F /  5.1 °C 29.5in /  997.9hPa West 2mph /  3.2km/h 4.5mph /  7.2km/h 98% 0in /  0.0mm
18:10 41.7 °F /  5.4 °C 41.2 °F /  5.1 °C 29.5in /  998.9hPa West 3.4mph /  5.5km/h 4.9mph /  7.9km/h 98% 0in /  0.0mm
18:15 41.7 °F /  5.4 °C 41.2 °F /  5.1 °C 29.5in /  998.9hPa WNW 4mph /  6.4km/h 4.9mph /  7.9km/h 98% 0in /  0.0mm
18:20 41.7 °F /  5.4 °C 41.2 °F /  5.1 °C 29.5in /  998.9hPa WSW 3.4mph /  5.5km/h 5.8mph /  9.3km/h 98% 0in /  0.0mm
18:25 41.7 °F /  5.4 °C 41.2 °F /  5.1 °C 29.5in /  998.9hPa West 4.3mph /  6.9km/h 6.5mph /  10.5km/h 98% 0in /  0.0mm
18:30 41.7 °F /  5.4 °C 41.2 °F /  5.1 °C 29.5in /  998.9hPa WSW 5.8mph /  9.3km/h 6.5mph /  10.5km/h 98% 0in /  0.0mm
18:35 41.7 °F /  5.4 °C 41.2 °F /  5.1 °C 29.5in /  998.9hPa West 6.5mph /  10.5km/h 6.5mph /  10.5km/h 98% 0in /  0.0mm
18:40 41.7 °F /  5.4 °C 41.2 °F /  5.1 °C 29.5in /  998.9hPa West 4.7mph /  7.6km/h 6.5mph /  10.5km/h 98% 0in /  0.0mm
18:45 41.7 °F /  5.4 °C 41.2 °F /  5.1 °C 29.5in /  998.9hPa West 3.4mph /  5.5km/h 6.5mph /  10.5km/h 98% 0in /  0.0mm
18:50 41.7 °F /  5.4 °C 41.2 °F /  5.1 °C 29.5in /  998.9hPa West 4.9mph /  7.9km/h 6.3mph /  10.1km/h 98% 0in /  0.0mm
18:55 41.7 °F /  5.4 °C 41.2 °F /  5.1 °C 29.5in /  998.9hPa West 5.4mph /  8.7km/h 6.7mph /  10.8km/h 98% 0in /  0.0mm
19:00 41.9 °F /  5.5 °C 41.4 °F /  5.2 °C 29.5in /  998.9hPa West 9.6mph /  15.4km/h 9.6mph /  15.4km/h 98% 0in /  0.0mm
19:05 41.9 °F /  5.5 °C 41.4 °F /  5.2 °C 29.5in /  998.9hPa WNW 7.8mph /  12.6km/h 10.5mph /  16.9km/h 98% 0in /  0.0mm
19:10 42.1 °F /  5.6 °C 41.5 °F /  5.3 °C 29.5in /  998.9hPa West 5.6mph /  9.0km/h 10.5mph /  16.9km/h 98% 0in /  0.0mm
19:15 42.1 °F /  5.6 °C 41.5 °F /  5.3 °C 29.5in /  998.9hPa WSW 3.4mph /  5.5km/h 9.8mph /  15.8km/h 98% 0in /  0.0mm
19:20 42.1 °F /  5.6 °C 41.5 °F /  5.3 °C 29.5in /  998.9hPa WNW 3.8mph /  6.1km/h 9.8mph /  15.8km/h 98% 0in /  0.0mm
19:25 42.1 °F /  5.6 °C 41.5 °F /  5.3 °C 29.5in /  999.9hPa WNW 5.4mph /  8.7km/h 9.6mph /  15.4km/h 98% 0in /  0.0mm
19:30 42.1 °F /  5.6 °C 41.5 °F /  5.3 °C 29.5in /  999.9hPa West 7.8mph /  12.6km/h 8.5mph /  13.7km/h 98% 0.01in /  0.3mm
19:35 42.1 °F /  5.6 °C 41.5 °F /  5.3 °C 29.5in /  999.9hPa West 8.5mph /  13.7km/h 8.5mph /  13.7km/h 98% 0.01in /  0.3mm
19:40 42.1 °F /  5.6 °C 41.5 °F /  5.3 °C 29.6in /  1000.9hPa West 3.8mph /  6.1km/h 8.5mph /  13.7km/h 98% 0.01in /  0.3mm
19:45 42.1 °F /  5.6 °C 41.5 °F /  5.3 °C 29.6in /  1000.9hPa West 7.4mph /  11.9km/h 8.7mph /  14.0km/h 98% 0.01in /  0.3mm
19:50 42.1 °F /  5.6 °C 41.5 °F /  5.3 °C 29.6in /  1000.9hPa West 2.9mph /  4.7km/h 8.7mph /  14.0km/h 98% 0.01in /  0.3mm
19:55 42.1 °F /  5.6 °C 41.5 °F /  5.3 °C 29.6in /  1000.9hPa West 3.8mph /  6.1km/h 8.5mph /  13.7km/h 98% 0.01in /  0.3mm
20:00 42.1 °F /  5.6 °C 41.5 °F /  5.3 °C 29.6in /  1000.9hPa WSW 2.5mph /  4.0km/h 7.4mph /  11.9km/h 98% 0.01in /  0.3mm
20:05 42.1 °F /  5.6 °C 41.5 °F /  5.3 °C 29.6in /  1000.9hPa West 2.5mph /  4.0km/h 7.2mph /  11.6km/h 98% 0.01in /  0.3mm
20:10 41.9 °F /  5.5 °C 41.4 °F /  5.2 °C 29.6in /  1000.9hPa West 5.4mph /  8.7km/h 6mph /  9.7km/h 98% 0.01in /  0.3mm
20:15 41.9 °F /  5.5 °C 41.4 °F /  5.2 °C 29.6in /  1000.9hPa West 3.8mph /  6.1km/h 6mph /  9.7km/h 98% 0.01in /  0.3mm
20:20 41.5 °F /  5.3 °C 41 °F /  5.0 °C 29.6in /  1000.9hPa West 4.9mph /  7.9km/h 5.4mph /  8.7km/h 98% 0.01in /  0.3mm
20:25 41.5 °F /  5.3 °C 41 °F /  5.0 °C 29.6in /  1000.9hPa West 6.3mph /  10.1km/h 6.3mph /  10.1km/h 98% 0in /  0.0mm
20:30 41.5 °F /  5.3 °C 41 °F /  5.0 °C 29.6in /  1000.9hPa West 5.6mph /  9.0km/h 6.3mph /  10.1km/h 98% 0in /  0.0mm
20:35 41.5 °F /  5.3 °C 41 °F /  5.0 °C 29.6in /  1000.9hPa West 3.4mph /  5.5km/h 6.3mph /  10.1km/h 98% 0in /  0.0mm
20:40 41.5 °F /  5.3 °C 41 °F /  5.0 °C 29.6in /  1000.9hPa West 2.5mph /  4.0km/h 6.3mph /  10.1km/h 98% 0in /  0.0mm
20:45 41.5 °F /  5.3 °C 41 °F /  5.0 °C 29.6in /  1000.9hPa West 2.7mph /  4.3km/h 4.3mph /  6.9km/h 98% 0in /  0.0mm
20:50 41.5 °F /  5.3 °C 41 °F /  5.0 °C 29.6in /  1000.9hPa WSW 5.6mph /  9.0km/h 5.8mph /  9.3km/h 98% 0in /  0.0mm
20:55 41.5 °F /  5.3 °C 41 °F /  5.0 °C 29.6in /  1000.9hPa WSW 6.7mph /  10.8km/h 8.5mph /  13.7km/h 98% 0in /  0.0mm
21:00 41.7 °F /  5.4 °C 41.2 °F /  5.1 °C 29.6in /  1000.9hPa West 6mph /  9.7km/h 8.5mph /  13.7km/h 98% 0in /  0.0mm
21:05 41.9 °F /  5.5 °C 41.4 °F /  5.2 °C 29.6in /  1000.9hPa West 6.5mph /  10.5km/h 8.5mph /  13.7km/h 98% 0in /  0.0mm
21:10 41.9 °F /  5.5 °C 41.4 °F /  5.2 °C 29.6in /  1000.9hPa West 4.9mph /  7.9km/h 8.5mph /  13.7km/h 98% 0in /  0.0mm
21:15 41.9 °F /  5.5 °C 41.4 °F /  5.2 °C 29.6in /  1000.9hPa WSW 6.9mph /  11.1km/h 7.8mph /  12.6km/h 98% 0in /  0.0mm
21:20 42.1 °F /  5.6 °C 41.5 °F /  5.3 °C 29.6in /  1000.9hPa WSW 3.8mph /  6.1km/h 7.8mph /  12.6km/h 98% 0in /  0.0mm
21:25 42.1 °F /  5.6 °C 41.5 °F /  5.3 °C 29.5in /  999.9hPa Calm   6.9mph /  11.1km/h 98% 0in /  0.0mm
21:30 41.9 °F /  5.5 °C 41.4 °F /  5.2 °C 29.5in /  999.9hPa WSW 2.9mph /  4.7km/h 4mph /  6.4km/h 98% 0in /  0.0mm
21:35 41.9 °F /  5.5 °C 41.4 °F /  5.2 °C 29.5in /  999.9hPa Calm   3.6mph /  5.8km/h 98% 0in /  0.0mm
21:40 41.7 °F /  5.4 °C 41.2 °F /  5.1 °C 29.6in /  1000.9hPa Calm   3.6mph /  5.8km/h 98% 0in /  0.0mm
21:45 41.4 °F /  5.2 °C 40.8 °F /  4.9 °C 29.6in /  1000.9hPa WSW 3.8mph /  6.1km/h 3.8mph /  6.1km/h 98% 0in /  0.0mm
21:50 41.2 °F /  5.1 °C 40.6 °F /  4.8 °C 29.6in /  1000.9hPa Calm   3.8mph /  6.1km/h 98% 0in /  0.0mm
21:55 41.2 °F /  5.1 °C 40.6 °F /  4.8 °C 29.6in /  1000.9hPa Calm   4mph /  6.4km/h 98% 0in /  0.0mm
21:56 41.2 °F /  5.1 °C 40.6 °F /  4.8 °C 29.6in /  1000.9hPa Calm   4mph /  6.4km/h 98% 0in /  0.0mm
22:01 41.2 °F /  5.1 °C 40.6 °F /  4.8 °C 29.6in /  1000.9hPa Calm   4mph /  6.4km/h 98% 0in /  0.0mm
22:06 41 °F /  5.0 °C 40.5 °F /  4.7 °C 29.6in /  1000.9hPa Calm   2.7mph /  4.3km/h 98% 0in /  0.0mm
22:11 40.8 °F /  4.9 °C 40.3 °F /  4.6 °C 29.6in /  1000.9hPa Calm   2.7mph /  4.3km/h 98% 0in /  0.0mm
22:16 40.8 °F /  4.9 °C 40.3 °F /  4.6 °C 29.6in /  1000.9hPa Calm   2.2mph /  3.5km/h 98% 0in /  0.0mm
22:21 40.6 °F /  4.8 °C 40.1 °F /  4.5 °C 29.6in /  1000.9hPa SW 2.2mph /  3.5km/h 3.8mph /  6.1km/h 98% 0in /  0.0mm
22:26 40.6 °F /  4.8 °C 40.1 °F /  4.5 °C 29.6in /  1000.9hPa Calm   3.8mph /  6.1km/h 98% 0in /  0.0mm
22:31 40.6 °F /  4.8 °C 40.1 °F /  4.5 °C 29.6in /  1000.9hPa South 2.5mph /  4.0km/h 3.8mph /  6.1km/h 98% 0in /  0.0mm
22:36 40.3 °F /  4.6 °C 39.7 °F /  4.3 °C 29.6in /  1000.9hPa Calm   2.5mph /  4.0km/h 98% 0in /  0.0mm
22:41 40.1 °F /  4.5 °C 39.6 °F /  4.2 °C 29.6in /  1000.9hPa Calm   2.5mph /  4.0km/h 98% 0in /  0.0mm
22:46 40.1 °F /  4.5 °C 39.6 °F /  4.2 °C 29.6in /  1000.9hPa SW 2.5mph /  4.0km/h 4.9mph /  7.9km/h 98% 0in /  0.0mm
22:51 39.9 °F /  4.4 °C 39.4 °F /  4.1 °C 29.6in /  1000.9hPa SW 4mph /  6.4km/h 4.9mph /  7.9km/h 98% 0in /  0.0mm
22:56 40.1 °F /  4.5 °C 39.6 °F /  4.2 °C 29.6in /  1000.9hPa SSW 2.5mph /  4.0km/h 4.9mph /  7.9km/h 98% 0in /  0.0mm
23:01 40.1 °F /  4.5 °C 39.6 °F /  4.2 °C 29.6in /  1000.9hPa South 1.3mph /  2.1km/h 4.9mph /  7.9km/h 98% 0in /  0.0mm
23:06 39.7 °F /  4.3 °C 39.2 °F /  4.0 °C 29.6in /  1000.9hPa Calm   3.4mph /  5.5km/h 98% 0in /  0.0mm
23:11 39.6 °F /  4.2 °C 39 °F /  3.9 °C 29.5in /  999.9hPa Calm   0.9mph /  1.4km/h 98% 0in /  0.0mm
23:16 39.4 °F /  4.1 °C 38.8 °F /  3.8 °C 29.5in /  999.9hPa Calm   0.9mph /  1.4km/h 98% 0in /  0.0mm
23:21 39.2 °F /  4.0 °C 38.7 °F /  3.7 °C 29.5in /  999.9hPa Calm     98% 0in /  0.0mm
23:26 39 °F /  3.9 °C 38.5 °F /  3.6 °C 29.6in /  1000.9hPa Calm     98% 0in /  0.0mm
23:31 38.7 °F /  3.7 °C 38.1 °F /  3.4 °C 29.6in /  1000.9hPa Calm   0.9mph /  1.4km/h 98% 0in /  0.0mm
23:36 38.7 °F /  3.7 °C 38.1 °F /  3.4 °C 29.6in /  1000.9hPa Calm   1.1mph /  1.8km/h 98% 0in /  0.0mm
23:41 38.5 °F /  3.6 °C 37.9 °F /  3.3 °C 29.6in /  1000.9hPa Calm   1.1mph /  1.8km/h 98% 0in /  0.0mm
23:46 38.7 °F /  3.7 °C 38.1 °F /  3.4 °C 29.6in /  1000.9hPa Calm   2mph /  3.2km/h 98% 0in /  0.0mm
23:51 38.7 °F /  3.7 °C 38.1 °F /  3.4 °C 29.6in /  1000.9hPa Calm   2mph /  3.2km/h 98% 0in /  0.0mm
23:56 38.7 °F /  3.7 °C 38.1 °F /  3.4 °C 29.6in /  1000.9hPa Calm     98% 0in /  0.0mm
Données Historique de Météo Turbie

Mise a jour : 24/05/2018 23:16:14
Généré par Cumulus 1.9.4 (1099)